Time;durP1;ratioP1;P1;durP2;ratioP2;P2;SDS_P1;SDS_P2;PMS_P1;PMS_P2;Temp;Humidity;BMP_temperature;BMP_pressure;BME280_temperature;BME280_humidity;BME280_pressure;Samples;Min_cycle;Max_cycle;Signal;HPM_P1;HPM_P2
2022/05/02 00:01:17;;;;;;;;;;;;;;;7.07;60.49;100484.11;2309058;76;21452;-77
2022/05/02 00:04:18;;;;;;;27.10;15.95;;;;;;;7.09;60.60;100483.47;2306760;76;20116;-79
2022/05/02 00:07:19;;;;;;;29.20;16.48;;;;;;;7.09;60.47;100486.11;2307475;76;20969;-79
2022/05/02 00:10:20;;;;;;;28.57;16.37;;;;;;;7.13;60.80;100490.17;2307879;76;20929;-79
2022/05/02 00:13:21;;;;;;;24.35;14.93;;;;;;;7.12;60.60;100481.05;2308074;76;21102;-77
2022/05/02 00:16:22;;;;;;;27.42;17.80;;;;;;;7.07;60.39;100480.16;2305993;76;20934;-78
2022/05/02 00:19:23;;;;;;;;;;;;;;;7.04;60.67;100476.93;2310155;76;21405;-79
2022/05/02 00:22:24;;;;;;;29.77;17.62;;;;;;;6.94;60.71;100480.87;2301846;76;20092;-80
2022/05/02 00:25:25;;;;;;;;;;;;;;;6.86;60.71;100476.75;2311016;76;21486;-80
2022/05/02 00:28:27;;;;;;;32.23;19.82;;;;;;;6.84;60.89;100479.54;2304968;76;20091;-80
2022/05/02 00:31:29;;;;;;;35.50;19.45;;;;;;;6.79;60.92;100476.95;2301810;76;21031;-80
2022/05/02 00:34:30;;;;;;;30.08;17.42;;;;;;;6.70;60.99;100476.78;2311759;76;20953;-78
2022/05/02 00:37:31;;;;;;;32.45;17.65;;;;;;;6.66;61.16;100474.04;2310203;76;21041;-80
2022/05/02 00:40:33;;;;;;;31.12;16.80;;;;;;;6.61;61.26;100474.09;2304695;76;21001;-78
2022/05/02 00:43:34;;;;;;;30.77;17.42;;;;;;;6.54;61.52;100477.75;2305741;76;21028;-81
2022/05/02 00:46:37;;;;;;;23.67;15.53;;;;;;;6.53;61.52;100477.87;2307849;76;21044;-79
2022/05/02 00:49:41;;;;;;;24.15;15.75;;;;;;;6.47;61.49;100473.95;2306909;76;21073;-77
2022/05/02 00:52:42;;;;;;;27.15;16.87;;;;;;;6.48;61.57;100471.20;2308398;76;21474;-81
2022/05/02 00:55:45;;;;;;;;;;;;;;;6.49;61.62;100473.34;2307591;76;20985;-81
2022/05/02 00:58:47;;;;;;;29.27;16.52;;;;;;;6.44;61.80;100469.77;2310239;76;20099;-79
2022/05/02 01:01:48;;;;;;;28.02;17.92;;;;;;;6.38;61.70;100464.20;2310901;76;21029;-79
2022/05/02 01:04:49;;;;;;;26.85;16.42;;;;;;;6.39;62.01;100471.14;2312404;77;21024;-81
2022/05/02 01:07:50;;;;;;;;;;;;;;;6.37;62.48;100465.19;2312605;76;20989;-77
2022/05/02 01:10:54;;;;;;;28.98;16.50;;;;;;;6.37;62.85;100469.14;2312263;77;20117;-79
2022/05/02 01:13:55;;;;;;;29.15;17.85;;;;;;;6.31;62.69;100471.81;2310609;76;21497;-79
2022/05/02 01:16:56;;;;;;;;;;;;;;;6.28;62.72;100459.73;2312391;77;21065;-80
2022/05/02 01:19:57;;;;;;;27.62;17.40;;;;;;;6.27;63.05;100455.41;2312108;76;20113;-81
2022/05/02 01:22:58;;;;;;;29.20;17.37;;;;;;;6.25;63.13;100463.95;2313321;77;20942;-81
2022/05/02 01:25:59;;;;;;;26.05;17.40;;;;;;;6.23;63.08;100457.13;2310961;76;20912;-79
2022/05/02 01:29:01;;;;;;;;;;;;;;;6.16;63.12;100459.44;2316954;76;20970;-80
2022/05/02 01:32:06;;;;;;;26.68;16.65;;;;;;;6.13;63.25;100455.74;2310317;76;20087;-79
2022/05/02 01:35:10;;;;;;;28.77;16.73;;;;;;;6.13;63.14;100459.70;2309883;76;20974;-80
2022/05/02 01:38:12;;;;;;;27.82;15.95;;;;;;;6.14;63.23;100457.44;2307715;77;20970;-79
2022/05/02 01:41:14;;;;;;;32.98;16.77;;;;;;;6.13;63.05;100459.70;2313539;76;20973;-78
2022/05/02 01:44:15;;;;;;;26.55;16.05;;;;;;;6.10;63.18;100454.69;2306607;76;21264;-78
2022/05/02 01:47:16;;;;;;;26.40;15.65;;;;;;;6.07;63.44;100456.27;2312882;76;20973;-77
2022/05/02 01:50:17;;;;;;;30.37;15.20;;;;;;;6.03;63.57;100454.38;2310830;77;21298;-80
2022/05/02 01:53:19;;;;;;;27.07;15.23;;;;;;;5.98;63.70;100449.14;2313656;76;20983;-78
2022/05/02 01:56:20;;;;;;;28.60;17.60;;;;;;;5.96;63.84;100448.44;2307607;77;20983;-79
2022/05/02 01:59:21;;;;;;;;;;;;;;;5.94;63.93;100449.03;2310431;76;21046;-82
2022/05/02 02:02:22;;;;;;;25.15;15.72;;;;;;;5.89;64.22;100445.45;2305398;76;20120;-79
2022/05/02 02:08:43;;;;;;;24.52;14.58;;;;;;;5.74;64.41;100450.19;2299746;76;20172;-79
2022/05/02 02:11:44;;;;;;;25.48;15.25;;;;;;;5.72;64.43;100446.86;2306177;76;21007;-80
2022/05/02 02:14:45;;;;;;;28.70;15.13;;;;;;;5.72;64.49;100447.35;2306621;76;21479;-79
2022/05/02 02:17:46;;;;;;;26.93;14.13;;;;;;;5.69;64.43;100447.58;2302383;76;20957;-79
2022/05/02 02:20:48;;;;;;;;;;;;;;;5.68;64.45;100440.16;2304325;76;20967;-80
2022/05/02 02:23:50;;;;;;;24.60;14.38;;;;;;;5.65;64.28;100450.95;2306704;76;20162;-81
2022/05/02 02:26:51;;;;;;;26.05;15.50;;;;;;;5.65;64.37;100450.13;2303726;76;20998;-78
2022/05/02 02:29:51;;;;;;;;;;;;;;;5.60;64.74;100445.23;2306659;76;21488;-78
2022/05/02 02:32:52;;;;;;;27.07;17.05;;;;;;;5.61;65.19;100448.23;2306474;76;20134;-79
2022/05/02 02:35:53;;;;;;;;;;;;;;;5.62;65.33;100444.14;2302686;76;20961;-78
2022/05/02 02:38:54;;;;;;;;;;;;;;;5.61;65.53;100442.97;2304961;76;20213;-79
2022/05/02 02:41:55;;;;;;;28.15;14.30;;;;;;;5.57;65.32;100442.84;2308831;76;20080;-78
2022/05/02 02:44:56;;;;;;;;;;;;;;;5.52;65.21;100437.98;2312347;76;20979;-78
2022/05/02 02:47:57;;;;;;;28.70;17.80;;;;;;;5.49;65.54;100438.70;2301351;76;20095;-78
2022/05/02 02:51:01;;;;;;;;;;;;;;;5.46;65.76;100434.52;2304132;76;21013;-78
2022/05/02 02:54:03;;;;;;;19.87;13.58;;;;;;;5.42;65.87;100443.64;2298726;76;20118;-80
2022/05/02 02:57:05;;;;;;;22.65;16.12;;;;;;;5.39;65.46;100446.04;2302320;76;21010;-79
2022/05/02 03:00:07;;;;;;;26.52;16.32;;;;;;;5.33;65.89;100439.97;2304390;76;20975;-82
2022/05/02 03:03:08;;;;;;;21.45;14.60;;;;;;;5.28;66.10;100442.12;2300421;76;21089;-78
2022/05/02 03:06:09;;;;;;;;;;;;;;;5.26;65.84;100448.47;2308490;76;21638;-80
2022/05/02 03:09:10;;;;;;;29.75;14.95;;;;;;;5.22;65.92;100452.33;2308404;76;20097;-80
2022/05/02 03:12:11;;;;;;;23.42;15.45;;;;;;;5.21;65.85;100443.60;2308530;76;21544;-80
2022/05/02 03:15:12;;;;;;;23.98;15.80;;;;;;;5.16;65.92;100447.91;2300448;76;20977;-80
2022/05/02 03:18:13;;;;;;;;;;;;;;;5.09;66.27;100449.34;2307128;76;21045;-80
2022/05/02 03:21:14;;;;;;;28.75;17.07;;;;;;;4.88;66.76;100444.51;2307983;76;20229;-78
2022/05/02 03:24:15;;;;;;;;;;;;;;;4.79;67.05;100439.51;2308450;76;21018;-79
2022/05/02 03:27:16;;;;;;;39.05;19.52;;;;;;;4.60;67.38;100448.48;2305635;76;20415;-80
2022/05/02 03:30:17;;;;;;;;;;;;;;;4.58;67.61;100441.19;2308699;76;20994;-79
2022/05/02 03:33:18;;;;;;;34.88;18.30;;;;;;;4.57;67.70;100448.73;2303862;76;20159;-80
2022/05/02 03:36:19;;;;;;;;;;;;;;;4.58;67.58;100445.12;2305160;76;20945;-81
2022/05/02 03:39:20;;;;;;;23.65;15.53;;;;;;;4.56;67.38;100447.03;2307862;76;20147;-78
2022/05/02 03:42:21;;;;;;;30.80;14.98;;;;;;;4.53;67.51;100442.84;2301762;76;21028;-81
2022/05/02 03:45:22;;;;;;;30.32;15.63;;;;;;;4.57;67.50;100443.47;2301680;76;20984;-81
2022/05/02 03:48:23;;;;;;;;;;;;;;;4.60;67.41;100437.97;2305291;76;21028;-80
2022/05/02 03:51:24;;;;;;;32.75;16.90;;;;;;;4.64;67.52;100444.64;2300233;76;20172;-78
2022/05/02 03:54:25;;;;;;;26.30;16.65;;;;;;;4.70;67.77;100445.47;2302910;76;21690;-80
2022/05/02 03:57:26;;;;;;;;;;;;;;;4.75;67.66;100445.12;2306764;76;21013;-77
2022/05/02 04:00:27;;;;;;;28.95;16.55;;;;;;;4.81;67.88;100448.09;2305895;76;20462;-77
2022/05/02 04:03:28;;;;;;;31.87;15.88;;;;;;;5.00;68.29;100451.89;2307322;76;21026;-79
2022/05/02 04:06:29;;;;;;;26.48;16.35;;;;;;;5.21;67.91;100448.86;2304720;76;20954;-79
2022/05/02 04:09:31;;;;;;;31.90;18.42;;;;;;;5.45;67.96;100446.02;2308629;76;20957;-81
2022/05/02 04:12:37;;;;;;;;;;;;;;;5.77;68.09;100448.64;2303848;76;21008;-78
2022/05/02 04:15:38;;;;;;;26.30;15.80;;;;;;;6.11;68.01;100451.56;2305460;76;20194;-80
2022/05/02 04:18:40;;;;;;;32.03;18.30;;;;;;;6.41;67.81;100456.86;2305555;76;21064;-79
2022/05/02 04:21:43;;;;;;;32.60;16.87;;;;;;;6.72;67.74;100456.36;2309192;76;21032;-79
2022/05/02 04:24:44;;;;;;;29.95;17.50;;;;;;;7.14;67.51;100456.69;2301928;76;20984;-81
2022/05/02 04:27:45;;;;;;;32.42;19.50;;;;;;;7.47;67.15;100462.08;2310389;76;21538;-79
2022/05/02 04:30:46;;;;;;;32.48;17.82;;;;;;;7.77;66.95;100462.90;2311480;76;21065;-80
2022/05/02 04:33:47;;;;;;;;;;;;;;;8.17;66.60;100472.47;2310711;76;21000;-79
2022/05/02 04:36:48;;;;;;;29.25;17.77;;;;;;;8.50;66.02;100470.66;2309935;76;20107;-77
2022/05/02 04:39:49;;;;;;;28.25;17.23;;;;;;;8.87;66.01;100468.95;2309162;76;20969;-80
2022/05/02 04:42:50;;;;;;;26.23;16.55;;;;;;;9.26;65.34;100464.25;2307873;76;20982;-80
2022/05/02 04:45:52;;;;;;;24.00;16.05;;;;;;;9.53;64.87;100460.72;2306531;76;20958;-79
2022/05/02 04:48:53;;;;;;;25.00;14.13;;;;;;;9.87;64.64;100470.63;2308713;76;21004;-77
2022/05/02 04:51:54;;;;;;;26.60;13.95;;;;;;;10.27;64.08;100458.66;2305349;76;23090;-80
2022/05/02 04:54:55;;;;;;;22.02;13.53;;;;;;;10.61;63.31;100461.84;2303488;76;21072;-79
2022/05/02 04:57:56;;;;;;;19.67;13.38;;;;;;;10.93;63.19;100461.16;2305294;76;21034;-80
2022/05/02 05:00:57;;;;;;;23.98;13.48;;;;;;;11.22;62.53;100463.39;2264018;76;21023;-82
2022/05/02 05:03:58;;;;;;;22.95;13.30;;;;;;;11.56;62.01;100461.13;2258489;78;21602;-81
2022/05/02 05:07:01;;;;;;;21.40;14.05;;;;;;;11.96;61.49;100459.50;2263307;78;20975;-80
2022/05/02 05:10:03;;;;;;;20.37;13.60;;;;;;;12.34;60.91;100453.97;2259359;77;20990;-81
2022/05/02 05:13:08;;;;;;;20.52;14.07;;;;;;;12.76;60.27;100454.98;2256672;78;21001;-81
2022/05/02 05:16:24;;;;;;;22.77;14.47;;;;;;;13.14;59.62;100456.45;2262440;78;20996;-80
2022/05/02 05:20:10;;;;;;;23.30;14.25;;;;;;;13.52;59.36;100449.94;2255251;78;21008;-82
2022/05/02 05:23:31;;;;;;;28.87;14.55;;;;;;;13.95;58.21;100450.75;2260155;78;21037;-81
2022/05/02 05:27:17;;;;;;;27.60;16.25;;;;;;;13.94;57.56;100444.59;2258147;78;22226;-81
2022/05/02 05:30:21;;;;;;;25.97;15.65;;;;;;;13.98;56.90;100442.39;2256288;77;21021;-81
2022/05/02 05:33:46;;;;;;;27.48;16.82;;;;;;;13.87;56.32;100444.98;2262375;78;21439;-81
2022/05/02 05:37:15;;;;;;;30.62;16.42;;;;;;;13.73;56.07;100451.92;2254891;78;21559;-81
2022/05/02 05:40:30;;;;;;;25.95;16.82;;;;;;;13.59;55.50;100449.53;2262160;78;21064;-80
2022/05/02 05:43:49;;;;;;;29.20;16.32;;;;;;;13.46;55.59;100450.65;2259342;78;21000;-82
2022/05/02 05:47:08;;;;;;;25.17;15.63;;;;;;;13.43;55.49;100444.31;2260410;78;21506;-81
2022/05/02 05:50:26;;;;;;;26.85;15.65;;;;;;;13.57;55.59;100444.05;2261435;78;21000;-82
2022/05/02 05:53:55;;;;;;;26.85;15.75;;;;;;;13.93;55.59;100439.42;2257375;78;20987;-80
2022/05/02 05:57:21;;;;;;;23.38;15.20;;;;;;;14.29;54.92;100444.91;2256901;78;21022;-81
2022/05/02 06:00:25;;;;;;;23.75;15.13;;;;;;;14.55;54.21;100447.98;2277176;77;20982;-79
2022/05/02 06:03:32;;;;;;;20.10;14.47;;;;;;;14.92;53.54;100446.22;2287384;77;21031;-80
2022/05/02 06:06:35;;;;;;;24.37;14.68;;;;;;;15.22;53.49;100437.59;2276448;77;20978;-80
2022/05/02 06:09:38;;;;;;;22.77;14.63;;;;;;;15.96;53.05;100437.79;2285874;77;21035;-80
2022/05/02 06:12:42;;;;;;;23.22;13.65;;;;;;;16.43;52.17;100448.31;2282935;77;21498;-81
2022/05/02 06:19:17;;;;;;;18.12;12.60;;;;;;;16.52;50.44;100451.14;2276470;77;21503;-82
2022/05/02 06:22:18;;;;;;;22.75;13.55;;;;;;;16.13;49.42;100452.56;2281443;77;20978;-83
2022/05/02 06:25:22;;;;;;;22.02;13.60;;;;;;;15.71;49.70;100449.92;2278372;77;21785;-80
2022/05/02 06:28:43;;;;;;;20.50;14.73;;;;;;;15.59;49.57;100453.09;2281361;77;21501;-81
2022/05/02 06:31:47;;;;;;;20.92;14.45;;;;;;;15.81;49.54;100457.13;2263418;77;21024;-81
2022/05/02 06:34:48;;;;;;;19.32;14.00;;;;;;;15.92;49.04;100449.91;2282803;77;21554;-82
2022/05/02 06:38:10;;;;;;;19.00;13.83;;;;;;;16.38;49.33;100460.64;2281125;77;20961;-83
2022/05/02 06:41:35;;;;;;;20.70;14.58;;;;;;;16.80;48.27;100454.30;2288163;77;21001;-82
2022/05/02 06:45:25;;;;;;;22.73;13.60;;;;;;;16.91;47.91;100456.41;2259453;77;21008;-83
2022/05/02 06:48:52;;;;;;;22.58;13.35;;;;;;;17.12;47.57;100455.97;2275681;77;20999;-83
2022/05/02 06:51:56;;;;;;;18.37;13.62;;;;;;;17.29;47.28;100460.45;2280537;77;21039;-81
2022/05/02 06:55:23;;;;;;;25.90;14.10;;;;;;;17.29;46.97;100458.63;2282596;77;21479;-82
2022/05/02 06:59:04;;;;;;;24.07;15.58;;;;;;;17.48;47.00;100461.86;2280238;77;21067;-81
2022/05/02 07:02:14;;;;;;;23.47;15.03;;;;;;;17.76;47.09;100464.87;2275754;77;21049;-82
2022/05/02 07:05:38;;;;;;;23.15;14.30;;;;;;;18.12;46.51;100459.12;2276204;77;20983;-79
2022/05/02 07:09:03;;;;;;;20.37;14.47;;;;;;;18.38;46.35;100458.25;2279544;77;20990;-82
2022/05/02 07:12:21;;;;;;;21.37;14.78;;;;;;;18.45;45.72;100462.81;2280673;77;21061;-81
2022/05/02 07:15:40;;;;;;;19.40;13.75;;;;;;;18.42;45.48;100465.39;2281808;77;21028;-81
2022/05/02 07:19:06;;;;;;;21.95;14.30;;;;;;;18.91;45.23;100465.37;2282290;77;21016;-80
2022/05/02 07:22:09;;;;;;;21.35;14.53;;;;;;;19.35;44.77;100466.94;2280248;77;21000;-83
2022/05/02 07:25:14;;;;;;;20.57;14.43;;;;;;;19.67;43.77;100459.18;2280571;77;20985;-80
2022/05/02 07:28:36;;;;;;;17.80;13.58;;;;;;;19.80;43.76;100463.66;2286270;77;21461;-81
2022/05/02 07:31:40;;;;;;;18.15;13.03;;;;;;;19.90;43.08;100460.45;2279096;77;20961;-78
2022/05/02 07:34:42;;;;;;;16.70;12.58;;;;;;;20.02;42.98;100458.72;2283747;77;20981;-81
2022/05/02 07:37:45;;;;;;;17.37;11.85;;;;;;;20.02;42.63;100462.76;2285271;77;20964;-81
2022/05/02 07:44:10;;;;;;;14.93;11.43;;;;;;;18.79;41.28;100463.87;2280760;77;21057;-82
2022/05/02 07:47:15;;;;;;;14.15;10.60;;;;;;;18.78;42.02;100464.92;2285408;77;21034;-84
2022/05/02 07:50:19;;;;;;;17.55;10.78;;;;;;;18.98;41.59;100466.19;2280303;77;21032;-79
2022/05/02 07:53:22;;;;;;;16.57;11.68;;;;;;;19.20;41.39;100460.47;2282560;77;21039;-80
2022/05/02 07:56:27;;;;;;;19.92;12.85;;;;;;;19.54;41.61;100465.98;2288504;77;21040;-80
2022/05/02 07:59:37;;;;;;;18.02;12.10;;;;;;;19.83;40.76;100455.14;2284348;77;21033;-82
2022/05/02 08:02:38;;;;;;;18.12;11.83;;;;;;;19.85;40.74;100462.48;2310703;76;20938;-79
2022/05/02 08:05:43;;;;;;;19.95;11.88;;;;;;;19.98;40.42;100461.53;2303204;76;20930;-81
2022/05/02 08:09:05;;;;;;;18.05;12.70;;;;;;;20.05;40.44;100460.15;2305496;76;20977;-78
2022/05/02 08:12:45;;;;;;;17.05;12.40;;;;;;;20.26;40.43;100456.20;2307218;76;21576;-79
2022/05/02 08:16:05;;;;;;;;;;;;;;;20.24;39.96;100458.30;2303170;76;21022;-79
2022/05/02 08:19:30;;;;;;;19.70;11.22;;;;;;;20.26;39.69;100458.91;2307866;76;20116;-79
2022/05/02 08:30:17;;;;;;;18.27;12.58;;;;;;;20.23;39.13;100461.52;2303656;76;20560;-80
2022/05/02 08:33:24;;;;;;;16.65;12.25;;;;;;;20.00;39.27;100455.94;2299467;76;21069;-79
2022/05/02 08:36:39;;;;;;;21.75;11.30;;;;;;;20.10;39.83;100450.36;2304874;76;21024;-80
2022/05/02 08:39:58;;;;;;;17.45;11.75;;;;;;;20.29;39.56;100451.72;2277660;76;21466;-80
2022/05/02 08:43:32;;;;;;;16.00;11.20;;;;;;;20.50;39.41;100449.95;2300653;76;21032;-81
2022/05/02 08:46:48;;;;;;;15.35;10.65;;;;;;;20.74;39.28;100444.20;2301412;76;21638;-79
2022/05/02 08:50:12;;;;;;;18.50;12.30;;;;;;;20.99;39.23;100437.36;2295002;76;21001;-81
2022/05/02 08:53:36;;;;;;;20.80;12.07;;;;;;;21.31;39.02;100441.17;2301495;76;21086;-79
2022/05/02 08:57:07;;;;;;;21.85;12.15;;;;;;;21.64;38.90;100437.19;2304911;76;21092;-81
2022/05/02 09:00:12;;;;;;;20.02;13.22;;;;;;;21.88;38.98;100422.67;2305855;76;21032;-81
2022/05/02 09:03:34;;;;;;;22.82;11.80;;;;;;;22.20;37.88;100425.05;2302212;76;21020;-80
2022/05/02 09:07:14;;;;;;;19.77;11.48;;;;;;;22.16;37.87;100422.51;2304246;76;21065;-79
2022/05/02 09:10:36;;;;;;;18.75;10.95;;;;;;;22.27;37.29;100423.06;2302063;76;21049;-81
2022/05/02 09:14:19;;;;;;;15.20;11.57;;;;;;;22.19;36.93;100419.36;2303247;76;21049;-81
2022/05/02 09:18:12;;;;;;;20.50;11.28;;;;;;;22.34;37.06;100420.22;2306942;76;21089;-81
2022/05/02 09:21:36;;;;;;;14.55;9.85;;;;;;;22.37;36.85;100414.34;2307553;75;21108;-82
2022/05/02 09:25:04;;;;;;;12.55;10.15;;;;;;;22.55;36.26;100418.77;2296219;76;20977;-83
2022/05/02 09:28:21;;;;;;;13.78;10.13;;;;;;;22.63;36.18;100418.39;2300771;76;21004;-83
2022/05/02 09:31:45;;;;;;;25.15;11.38;;;;;;;22.69;36.09;100413.37;2299660;76;21022;-83
2022/05/02 09:35:00;;;;;;;16.35;9.13;;;;;;;22.99;35.97;100413.73;2305409;76;21053;-81
2022/05/02 09:38:03;;;;;;;20.62;10.03;;;;;;;23.33;35.61;100410.56;2305016;76;21001;-79
2022/05/02 09:41:16;;;;;;;18.15;9.38;;;;;;;23.44;34.81;100404.26;2299668;76;20975;-80
2022/05/02 09:52:16;;;;;;;12.28;8.18;;;;;;;23.80;34.01;100394.58;2301227;76;20967;-83
2022/05/02 09:59:23;;;;;;;13.88;8.85;;;;;;;24.03;32.81;100391.67;2293612;76;20985;-84
2022/05/02 10:02:24;;;;;;;10.98;7.22;;;;;;;24.07;32.87;100390.63;2310733;76;21045;-84
2022/05/02 10:05:51;;;;;;;10.40;7.22;;;;;;;23.91;31.59;100388.25;2312058;76;20943;-83
2022/05/02 10:09:33;;;;;;;10.23;7.95;;;;;;;23.36;31.54;100380.29;2316782;76;21096;-82
2022/05/02 10:12:53;;;;;;;10.10;7.83;;;;;;;23.57;31.58;100380.11;2312540;76;21488;-82
2022/05/02 10:16:24;;;;;;;9.13;6.28;;;;;;;23.27;30.85;100377.70;2312312;76;21006;-82
2022/05/02 10:19:43;;;;;;;10.95;7.20;;;;;;;23.05;30.21;100370.81;2309799;76;21049;-82
2022/05/02 10:23:12;;;;;;;11.33;7.10;;;;;;;23.08;31.37;100362.75;2311312;76;21521;-84
2022/05/02 10:26:41;;;;;;;10.50;7.00;;;;;;;23.20;31.45;100361.63;2313600;76;20988;-84
2022/05/02 10:29:57;;;;;;;8.38;5.85;;;;;;;23.52;30.78;100351.59;2310743;76;20989;-85
2022/05/02 10:33:03;;;;;;;9.85;6.67;;;;;;;23.73;29.28;100353.28;2315881;76;21088;-82
2022/05/02 10:36:05;;;;;;;12.18;7.55;;;;;;;23.65;30.10;100346.35;2305060;76;20985;-84
2022/05/02 10:39:45;;;;;;;11.97;7.12;;;;;;;23.93;29.47;100340.02;2314281;76;21597;-83
2022/05/02 10:42:52;;;;;;;12.20;7.37;;;;;;;23.94;30.01;100339.78;2312879;76;21037;-83
2022/05/02 10:45:54;;;;;;;10.85;7.03;;;;;;;24.03;30.12;100340.17;2314552;76;21053;-85
2022/05/02 10:49:03;;;;;;;11.10;6.90;;;;;;;24.29;29.94;100335.08;2312583;76;21500;-86
2022/05/02 10:52:19;;;;;;;10.90;6.83;;;;;;;24.46;29.86;100331.80;2310739;76;21068;-83
2022/05/02 10:55:33;;;;;;;12.13;7.70;;;;;;;24.31;29.19;100330.23;2284908;76;21495;-85
2022/05/02 10:58:35;;;;;;;9.68;6.60;;;;;;;23.30;27.65;100321.72;2310449;76;21359;-83
2022/05/02 11:02:14;;;;;;;11.55;7.47;;;;;;;23.13;28.07;100316.30;2281657;76;20934;-82
2022/05/02 11:05:18;;;;;;;11.08;7.45;;;;;;;22.99;28.07;100322.55;2262012;78;21023;-82
2022/05/02 11:08:40;;;;;;;11.53;6.75;;;;;;;23.18;28.90;100314.22;2261284;78;20990;-84
2022/05/02 11:11:50;;;;;;;11.48;6.42;;;;;;;23.35;28.85;100311.52;2259367;78;21047;-84
2022/05/02 11:15:09;;;;;;;8.28;6.40;;;;;;;23.64;28.77;100310.33;2262465;78;20980;-82
2022/05/02 11:22:15;;;;;;;9.15;5.85;;;;;;;23.73;29.77;100312.65;2252814;78;20990;-83
2022/05/02 11:25:27;;;;;;;8.60;5.47;;;;;;;24.03;29.14;100308.20;2250548;78;20998;-83
2022/05/02 11:28:52;;;;;;;9.28;6.22;;;;;;;24.02;28.65;100301.12;2266293;78;21524;-83
2022/05/02 11:32:17;;;;;;;10.23;6.08;;;;;;;23.85;28.94;100295.74;2257676;78;20986;-81
2022/05/02 11:35:31;;;;;;;10.05;6.17;;;;;;;23.91;28.71;100293.41;2261833;78;20990;-85
2022/05/02 11:38:56;;;;;;;9.00;6.08;;;;;;;23.78;27.75;100291.05;2255057;78;20993;-86
2022/05/02 11:42:03;;;;;;;11.88;6.10;;;;;;;23.67;28.14;100297.64;2260533;78;21012;-84
2022/05/02 11:45:13;;;;;;;8.70;6.25;;;;;;;23.66;27.50;100286.53;2262119;78;21093;-82
2022/05/02 11:48:32;;;;;;;7.72;6.30;;;;;;;23.15;27.69;100283.59;2255975;78;20938;-85
2022/05/02 11:51:45;;;;;;;8.38;6.60;;;;;;;23.04;27.82;100282.05;2258921;78;21043;-82
2022/05/02 11:54:49;;;;;;;8.50;5.95;;;;;;;23.09;27.77;100285.39;2256322;78;21017;-84
2022/05/02 11:57:55;;;;;;;9.13;5.75;;;;;;;23.00;27.96;100278.21;2257666;78;21008;-82
2022/05/02 12:01:02;;;;;;;9.23;6.05;;;;;;;23.04;27.76;100282.59;2272551;77;21102;-85
2022/05/02 12:04:04;;;;;;;7.12;5.37;;;;;;;22.86;28.04;100270.60;2309441;77;21026;-84
2022/05/02 12:07:11;;;;;;;8.00;5.58;;;;;;;23.04;28.12;100271.23;2287070;77;21789;-83
2022/05/02 12:10:13;;;;;;;6.00;5.30;;;;;;;23.21;28.38;100267.17;2310391;77;20978;-84
2022/05/02 12:13:18;;;;;;;11.55;5.30;;;;;;;23.52;28.32;100265.47;2310703;77;20930;-84
2022/05/02 12:16:20;;;;;;;21.57;6.00;;;;;;;23.34;27.49;100267.89;2309042;76;21024;-85
2022/05/02 12:19:30;;;;;;;7.80;4.87;;;;;;;22.92;27.66;100265.56;2312288;76;21031;-82
2022/05/02 12:22:34;;;;;;;8.50;4.58;;;;;;;22.70;27.67;100265.47;2309992;76;21466;-84
2022/05/02 12:25:50;;;;;;;7.62;4.58;;;;;;;22.46;27.63;100264.75;2311853;77;21045;-83
2022/05/02 12:29:00;;;;;;;7.28;4.85;;;;;;;22.49;27.10;100258.31;2310923;77;20971;-82
2022/05/02 12:32:05;;;;;;;6.25;4.78;;;;;;;22.29;28.16;100255.23;2309633;76;21528;-83
2022/05/02 12:35:10;;;;;;;7.33;4.62;;;;;;;22.14;28.15;100248.97;2310906;76;21604;-83
2022/05/02 12:38:24;;;;;;;8.60;4.78;;;;;;;22.06;28.07;100248.00;2210231;79;21046;-86
2022/05/02 12:41:25;;;;;;;5.85;4.40;;;;;;;21.97;28.12;100248.09;2238948;77;21509;-82
2022/05/02 12:44:32;;;;;;;9.05;5.45;;;;;;;21.81;28.29;100239.64;2253234;78;20967;-83
2022/05/02 12:47:43;;;;;;;5.92;4.50;;;;;;;21.48;27.90;100238.92;2247008;78;21116;-85
2022/05/02 12:50:51;;;;;;;5.95;4.37;;;;;;;21.38;28.69;100238.70;2241974;79;21068;-84
2022/05/02 12:54:13;;;;;;;5.75;4.40;;;;;;;21.47;28.29;100241.34;2236765;79;22145;-83
2022/05/02 13:00:36;;;;;;;6.47;4.05;;;;;;;21.78;28.32;100232.02;2229562;78;20978;-82
2022/05/02 13:03:39;;;;;;;5.92;5.20;;;;;;;21.83;28.16;100231.32;2238304;78;20987;-83
2022/05/02 13:06:40;;;;;;;6.25;5.20;;;;;;;21.94;28.73;100227.23;2244345;78;22118;-84
2022/05/02 13:09:43;;;;;;;10.58;5.65;;;;;;;21.81;28.88;100224.80;2242175;78;21464;-81
2022/05/02 13:13:09;;;;;;;12.18;5.20;;;;;;;21.67;29.29;100222.88;2233494;78;21464;-82
2022/05/02 13:16:30;;;;;;;6.83;5.45;;;;;;;21.63;30.32;100212.81;2234280;78;21514;-83
2022/05/02 13:19:34;;;;;;;7.22;5.22;;;;;;;21.82;30.41;100207.55;2241659;78;21626;-81
2022/05/02 13:23:00;;;;;;;8.13;5.70;;;;;;;22.04;30.46;100213.09;2238953;78;21080;-83
2022/05/02 13:26:26;;;;;;;7.42;4.80;;;;;;;22.13;30.06;100205.43;2236520;78;21072;-82
2022/05/02 13:30:08;;;;;;;8.90;4.65;;;;;;;22.24;30.49;100210.00;2239417;78;21022;-83
2022/05/02 13:33:12;;;;;;;7.45;5.80;;;;;;;22.28;30.10;100202.25;2233278;78;20977;-82
2022/05/02 13:36:15;;;;;;;11.35;6.53;;;;;;;22.35;30.19;100201.55;2210814;78;21035;-82
2022/05/02 13:39:47;;;;;;;9.28;5.70;;;;;;;22.32;30.34;100197.45;2231315;78;20993;-85
2022/05/02 13:43:20;;;;;;;5.78;5.00;;;;;;;22.15;30.21;100196.02;2231631;78;21017;-82
2022/05/02 13:46:29;;;;;;;8.33;5.22;;;;;;;22.09;30.00;100198.88;2230744;78;21453;-83
2022/05/02 13:50:12;;;;;;;14.50;7.22;;;;;;;21.46;29.33;100192.47;2204281;78;21017;-82
2022/05/02 13:53:36;;;;;;;7.35;5.15;;;;;;;20.99;30.25;100190.55;2227849;78;21462;-82
2022/05/02 13:57:09;;;;;;;8.95;4.92;;;;;;;20.70;31.12;100197.67;2229188;78;21590;-82
2022/05/02 14:03:53;;;;;;;8.25;5.20;;;;;;;20.62;30.95;100175.63;2216829;79;21502;-81
2022/05/02 14:07:01;;;;;;;10.08;5.58;;;;;;;20.60;31.69;100173.14;2230500;78;21027;-81
2022/05/02 14:09:59;;;;;;;8.63;5.58;;;;;;;20.82;31.33;100176.12;2229691;78;21542;-82
2022/05/02 14:13:00;;;;;;;7.45;4.90;;;;;;;20.99;31.43;100170.33;2234742;78;21524;-82
2022/05/02 14:16:10;;;;;;;6.67;4.80;;;;;;;21.21;31.16;100168.41;2225758;78;22217;-82
2022/05/02 14:19:12;;;;;;;12.07;5.47;;;;;;;21.30;31.23;100171.56;2227396;78;20950;-82
2022/05/02 14:22:13;;;;;;;7.67;4.95;;;;;;;21.33;30.73;100168.39;2235016;78;21030;-81
2022/05/02 14:25:36;;;;;;;7.47;4.65;;;;;;;21.33;30.82;100170.55;2230618;78;21012;-82
2022/05/02 14:28:47;;;;;;;9.65;5.00;;;;;;;21.22;30.50;100168.68;2234999;78;21515;-81
2022/05/02 14:31:49;;;;;;;6.40;4.60;;;;;;;21.04;30.41;100166.41;2235225;78;21103;-81
2022/05/02 14:34:50;;;;;;;9.93;5.15;;;;;;;20.89;29.78;100155.27;2235491;78;20965;-85
2022/05/02 14:37:57;;;;;;;7.20;5.42;;;;;;;20.54;29.96;100155.21;2230118;78;21048;-82
2022/05/02 14:40:59;;;;;;;7.45;5.58;;;;;;;20.22;30.30;100151.94;2229266;78;21061;-84
2022/05/02 14:44:02;;;;;;;9.48;5.05;;;;;;;20.08;31.28;100159.38;2229765;78;20970;-82
2022/05/02 14:47:04;;;;;;;7.50;4.53;;;;;;;20.12;30.86;100151.12;2231269;78;21585;-81
2022/05/02 14:50:08;;;;;;;9.23;4.78;;;;;;;20.19;30.96;100153.72;2234190;78;21025;-80
2022/05/02 14:53:16;;;;;;;14.55;5.05;;;;;;;20.26;30.72;100151.77;2230443;78;21426;-81
2022/05/02 14:56:17;;;;;;;8.10;4.92;;;;;;;20.22;30.84;100141.98;2229861;78;20992;-80
2022/05/02 14:59:22;;;;;;;9.98;4.75;;;;;;;20.21;30.67;100148.94;2234860;78;21024;-82
2022/05/02 15:02:29;;;;;;;10.60;4.85;;;;;;;20.16;30.46;100142.91;2230364;78;21048;-82
2022/05/02 15:05:35;;;;;;;6.85;4.87;;;;;;;20.07;30.65;100145.07;2211061;79;21021;-81
2022/05/02 15:09:07;;;;;;;10.53;5.37;;;;;;;20.01;31.15;100151.91;2220385;79;21040;-81
2022/05/02 15:12:13;;;;;;;9.50;5.33;;;;;;;19.92;31.20;100148.70;2219947;79;21129;-81
2022/05/02 15:15:34;;;;;;;11.33;5.15;;;;;;;19.90;31.35;100136.80;2215938;79;20973;-82
2022/05/02 15:22:34;;;;;;;6.87;4.78;;;;;;;19.90;31.36;100144.88;2251211;78;20989;-82
2022/05/02 15:25:39;;;;;;;9.50;5.03;;;;;;;19.83;31.68;100140.66;2229248;78;20958;-82